Norfolk Island International Airport
YSNF : rendu visible

Aérodrome :











RETROUVEZ-NOUS SUR...

 
LOGIN :

S'inscrire | Disclaimer

   EN    FR    IT 

 









Légende :    VFR   VFR Marginal   IFR   IFR Intensif   IFR Très Intensif
Visi : 
Plafond : 
>= 8 km
>= 3000ft
5 à 8 km
1000 à 3000 ft
1500m à 5 km
500 à 1000 ft
800 à 1500m
200 à 500 ft
< 800m
< 200 ft
Symboles :   Orages  Brouillard  Fortes neiges  Fortes précipitations  Vent > 20 kt






- Altitude de l'aérodrome : 371 ft
- Code IATA : NLK


YSNF - Norfolk Island International

DERNIER METAR :
  • 021203Z AUTO 04013KT 9999 // BKN006 BKN049 18/17 Q1017

METARs EXPIRÉS :
  • 021139Z AUTO 04014KT 9999 // SCT006 BKN047 OVC053 18/17 Q1017 RESHRA
  • 021130Z AUTO 04013KT 9999 -SHRA SCT006 BKN025 BKN045 18/17 Q1018 RESHRA
  • 021100Z AUTO 03011KT 3600 RA SCT009 SCT024 BKN032 18/16 Q1018
  • 021042Z AUTO 02014KT 3400 RA SCT007 SCT026 BKN034 18/16 Q1018
  • 021037Z AUTO 02014KT 6000 +DZ SCT007 SCT018 BKN029 18/16 Q1018
  • 021000Z AUTO 01011KT 9999 // BKN009 BKN036 OVC044 19/17 Q1018
  • 020930Z AUTO 02011KT 9999 // SCT009 BKN014 BKN024 19/16 Q1018

TAF TAF YSNF
Valide du 02 à 12h jusqu'au 03 à 12h UTC


021114Z 0212/0312 01015G25KT 9999 -SHRA SCT010 BKN020
FM021900 32018G28KT 9999 -SHRA SCT020
FM022300 27022G34KT 9999 NSW FEW025 SCT035
TEMPO 0212/0222 3000 SHRA BKN010
FIR NZZO / Océanie



MET'MAP, la Météo Aéronautique d'un coup d'oeil ! - Copyright ORBIFLY Décembre 2007 - Disclaimer

ORBIFLY MET'MAP TEAM :

Programmation & Développement : Alexandra Zaïnal
Sur une idée originale de : Baudouin d'Aumeries
Assistance à la programmation : Marc-Olivier Méhu
Soutien technique & logistique : Manuel Goepfert

Contact : metmap@orbifly.com




SOURCES & CREDITS :

   NOAA       Earth
Advisory